createdAt,value
2022-12-25T00:00:18.397Z,84.50
2022-12-25T00:03:08.334Z,84.33
2022-12-25T00:05:40.962Z,83.98
2022-12-25T00:08:10.465Z,83.67
2022-12-25T00:10:44.761Z,83.44
2022-12-25T00:13:15.531Z,83.11
2022-12-25T00:15:43.141Z,82.85
2022-12-25T00:18:10.863Z,82.46
2022-12-25T00:20:38.465Z,82.18
2022-12-25T00:23:06.085Z,82.07
2022-12-25T00:25:33.849Z,81.75
2022-12-25T00:28:01.421Z,81.91
2022-12-25T00:30:29.108Z,81.86
2022-12-25T00:32:56.722Z,81.84
2022-12-25T00:35:24.362Z,81.97
2022-12-25T00:37:51.995Z,82.36
2022-12-25T00:40:19.620Z,82.68
2022-12-25T00:42:51.025Z,82.65
2022-12-25T00:45:18.664Z,82.52
2022-12-25T00:47:46.725Z,82.35
2022-12-25T00:50:14.340Z,82.12
2022-12-25T00:52:42.022Z,81.89
2022-12-25T00:55:09.970Z,81.56
2022-12-25T00:57:37.562Z,81.55
2022-12-25T01:00:05.555Z,81.39
2022-12-25T01:02:33.277Z,81.62
2022-12-25T01:05:01.166Z,81.89
2022-12-25T01:07:28.858Z,81.82
2022-12-25T01:09:56.616Z,81.73
2022-12-25T01:12:24.591Z,81.63
2022-12-25T01:14:52.235Z,81.46
2022-12-25T01:17:19.890Z,81.23
2022-12-25T01:19:47.474Z,81.00
2022-12-25T01:22:15.535Z,80.95
2022-12-25T01:24:44.576Z,80.79
2022-12-25T01:27:12.429Z,80.55
2022-12-25T01:29:40.178Z,80.39
2022-12-25T01:32:08.352Z,80.60
2022-12-25T01:34:36.097Z,80.65
2022-12-25T01:37:03.915Z,80.86
2022-12-25T01:39:31.632Z,80.91
2022-12-25T01:41:59.229Z,81.02
2022-12-25T01:44:36.029Z,81.03
2022-12-25T01:47:05.403Z,80.81
2022-12-25T01:49:37.498Z,80.76
2022-12-25T01:52:11.692Z,80.72
2022-12-25T01:54:44.521Z,80.75
2022-12-25T01:57:17.152Z,80.74
2022-12-25T01:59:45.887Z,80.72
2022-12-25T02:02:14.372Z,80.78
2022-12-25T02:04:48.428Z,80.92
2022-12-25T02:07:19.203Z,80.92
2022-12-25T02:09:47.522Z,80.91
2022-12-25T02:12:20.253Z,80.95
2022-12-25T02:14:50.179Z,81.02
2022-12-25T02:17:25.824Z,81.06
2022-12-25T02:20:25.536Z,81.15
2022-12-25T02:23:17.326Z,81.25
2022-12-25T02:25:53.443Z,81.27
2022-12-25T02:28:39.521Z,81.18
2022-12-25T02:31:17.749Z,81.26
2022-12-25T02:33:55.624Z,81.10
2022-12-25T02:36:29.558Z,81.30
2022-12-25T02:39:00.484Z,81.18
2022-12-25T02:41:30.725Z,81.33
2022-12-25T02:44:01.114Z,81.57
2022-12-25T02:46:31.731Z,81.86
2022-12-25T02:49:02.927Z,82.08
2022-12-25T02:51:36.018Z,82.08
2022-12-25T02:54:09.787Z,81.95
2022-12-25T02:56:40.340Z,82.04
2022-12-25T02:59:07.915Z,82.05
2022-12-25T03:01:37.579Z,82.15
2022-12-25T03:04:09.704Z,82.06
2022-12-25T03:06:40.418Z,81.95
2022-12-25T03:09:12.320Z,81.79
2022-12-25T03:11:39.822Z,81.79
2022-12-25T03:14:08.921Z,81.68
2022-12-25T03:16:36.576Z,81.77
2022-12-25T03:19:04.635Z,81.97
2022-12-25T03:21:32.200Z,81.92
2022-12-25T03:24:01.916Z,81.76
2022-12-25T03:26:30.077Z,81.65
2022-12-25T03:28:57.785Z,81.64
2022-12-25T03:31:35.032Z,81.62
2022-12-25T03:34:21.198Z,81.74
2022-12-25T03:37:02.856Z,81.78
2022-12-25T03:39:46.382Z,81.82
2022-12-25T03:42:16.765Z,81.48
2022-12-25T03:44:51.739Z,81.72
2022-12-25T03:47:33.283Z,81.73
2022-12-25T03:50:25.748Z,81.71
2022-12-25T03:52:56.332Z,81.96
2022-12-25T03:55:25.996Z,81.90
2022-12-25T03:57:53.605Z,82.05
2022-12-25T04:00:21.295Z,82.11
2022-12-25T04:02:48.956Z,82.20
2022-12-25T04:05:17.193Z,82.27
2022-12-25T04:07:44.839Z,82.82
2022-12-25T04:10:12.428Z,82.75
2022-12-25T04:12:40.170Z,82.77
2022-12-25T04:15:08.499Z,83.43
2022-12-25T04:17:36.293Z,83.47
2022-12-25T04:20:04.237Z,83.19
2022-12-25T04:22:31.832Z,83.14
2022-12-25T04:24:59.417Z,83.02
2022-12-25T04:27:27.053Z,82.88
2022-12-25T04:29:54.711Z,82.84
2022-12-25T04:32:22.454Z,82.55
2022-12-25T04:34:50.051Z,82.41
2022-12-25T04:37:17.796Z,82.44
2022-12-25T04:39:45.443Z,82.79
2022-12-25T04:42:13.031Z,83.28
2022-12-25T04:44:40.730Z,83.61
2022-12-25T04:47:11.513Z,83.44
2022-12-25T04:49:39.602Z,83.19
2022-12-25T04:52:07.359Z,83.09
2022-12-25T04:54:34.983Z,83.20
2022-12-25T04:57:02.549Z,83.24
2022-12-25T04:59:30.259Z,83.43
2022-12-25T05:01:57.993Z,83.26
2022-12-25T05:04:25.766Z,83.39
2022-12-25T05:06:53.449Z,83.64
2022-12-25T05:09:21.100Z,83.59
2022-12-25T05:11:48.699Z,83.95
2022-12-25T05:14:16.289Z,83.97
2022-12-25T05:16:44.110Z,83.60
2022-12-25T05:19:11.757Z,83.57
2022-12-25T05:21:39.363Z,83.37
2022-12-25T05:24:07.128Z,83.44
2022-12-25T05:26:34.713Z,83.34
2022-12-25T05:29:02.400Z,83.24
2022-12-25T05:31:30.782Z,83.10
2022-12-25T05:33:58.451Z,82.93
2022-12-25T05:36:26.035Z,82.82
2022-12-25T05:38:53.669Z,82.99
2022-12-25T05:41:21.286Z,83.09
2022-12-25T05:43:48.872Z,82.84
2022-12-25T05:46:16.587Z,83.09
2022-12-25T05:48:44.405Z,82.94
2022-12-25T05:51:14.360Z,82.98
2022-12-25T05:53:42.943Z,82.97
2022-12-25T05:56:10.627Z,82.69
2022-12-25T05:58:39.823Z,82.55
2022-12-25T06:01:20.423Z,82.38
2022-12-25T06:03:48.465Z,82.34
2022-12-25T06:06:16.175Z,82.18
2022-12-25T06:08:44.164Z,82.21
2022-12-25T06:11:13.635Z,82.23
2022-12-25T06:13:42.079Z,81.94
2022-12-25T06:16:12.056Z,81.84
2022-12-25T06:18:42.265Z,81.85
2022-12-25T06:21:12.269Z,81.84
2022-12-25T06:23:40.803Z,81.63
2022-12-25T06:26:14.873Z,81.81
2022-12-25T06:28:42.800Z,81.79
2022-12-25T06:31:14.011Z,81.90
2022-12-25T06:33:42.202Z,81.84
2022-12-25T06:36:22.310Z,82.02
2022-12-25T06:38:50.551Z,82.12
2022-12-25T06:41:21.216Z,81.94
2022-12-25T06:43:54.098Z,81.94
2022-12-25T06:46:23.348Z,82.15
2022-12-25T06:48:51.439Z,82.24
2022-12-25T06:51:22.770Z,82.07
2022-12-25T06:53:51.556Z,82.09
2022-12-25T06:56:21.505Z,82.14
2022-12-25T06:58:51.668Z,82.00
2022-12-25T07:01:32.116Z,82.28
2022-12-25T07:04:02.777Z,82.65
2022-12-25T07:06:30.690Z,82.86
2022-12-25T07:08:58.383Z,83.07
2022-12-25T07:11:26.198Z,83.57
2022-12-25T07:13:54.106Z,83.81
2022-12-25T07:16:21.740Z,83.96
2022-12-25T07:18:49.381Z,83.61
2022-12-25T07:21:19.660Z,83.86
2022-12-25T07:23:49.828Z,84.14
2022-12-25T07:26:18.192Z,84.71
2022-12-25T07:28:45.939Z,84.96
2022-12-25T07:31:15.651Z,85.00
2022-12-25T07:33:43.723Z,85.04
2022-12-25T07:36:13.297Z,84.94
2022-12-25T07:38:42.273Z,84.53
2022-12-25T07:41:12.620Z,84.51
2022-12-25T07:43:40.464Z,84.22
2022-12-25T07:46:09.099Z,83.72
2022-12-25T07:48:36.912Z,83.51
2022-12-25T07:51:10.649Z,83.23
2022-12-25T07:53:39.027Z,83.20
2022-12-25T07:56:11.458Z,83.37
2022-12-25T07:58:39.182Z,83.29
2022-12-25T08:01:10.392Z,83.06
2022-12-25T08:03:38.369Z,82.90
2022-12-25T08:06:08.715Z,82.91
2022-12-25T08:08:38.000Z,83.17
2022-12-25T08:11:10.135Z,83.31
2022-12-25T08:13:38.307Z,83.39
2022-12-25T08:16:08.592Z,83.44
2022-12-25T08:18:37.757Z,83.44
2022-12-25T08:21:08.678Z,83.23
2022-12-25T08:23:39.089Z,83.10
2022-12-25T08:26:08.386Z,83.27
2022-12-25T08:28:36.728Z,83.46
2022-12-25T08:31:08.635Z,83.27
2022-12-25T08:33:37.592Z,83.32
2022-12-25T08:36:09.427Z,83.15
2022-12-25T08:38:37.286Z,82.89
2022-12-25T08:41:05.252Z,82.51
2022-12-25T08:43:32.857Z,82.27
2022-12-25T08:46:00.930Z,81.98
2022-12-25T08:48:28.746Z,81.64
2022-12-25T08:50:56.718Z,81.50
2022-12-25T08:53:24.395Z,80.48
2022-12-25T08:56:02.528Z,78.89
2022-12-25T08:58:30.293Z,78.50
2022-12-25T09:00:57.984Z,78.15
2022-12-25T09:03:26.263Z,77.29
2022-12-25T09:05:54.567Z,76.88
2022-12-25T09:08:22.314Z,76.57
2022-12-25T09:10:49.971Z,76.12
2022-12-25T09:13:17.613Z,75.45
2022-12-25T09:15:45.384Z,74.96
2022-12-25T09:18:13.414Z,70.52
2022-12-25T09:20:41.086Z,66.48
2022-12-25T09:23:13.529Z,65.53
2022-12-25T09:25:41.491Z,63.03
2022-12-25T09:28:09.223Z,61.82
2022-12-25T09:30:36.929Z,61.71
2022-12-25T09:33:04.744Z,62.39
2022-12-25T09:35:32.410Z,62.37
2022-12-25T09:38:00.157Z,62.28
2022-12-25T09:40:30.891Z,62.85
2022-12-25T09:43:00.004Z,63.73
2022-12-25T09:45:33.842Z,64.62
2022-12-25T09:48:01.536Z,64.84
2022-12-25T09:50:54.554Z,65.14
2022-12-25T09:53:28.484Z,65.76
2022-12-25T09:56:06.592Z,65.93
2022-12-25T09:58:34.561Z,64.90
2022-12-25T10:01:19.462Z,60.86
2022-12-25T10:04:05.503Z,60.39
2022-12-25T10:06:52.329Z,59.84
2022-12-25T10:09:32.259Z,58.72
2022-12-25T10:12:27.948Z,58.63
2022-12-25T10:15:21.875Z,59.49
2022-12-25T10:18:01.461Z,57.17
2022-12-25T10:20:50.701Z,53.61
2022-12-25T10:23:25.616Z,50.69
2022-12-25T10:25:54.090Z,48.25
2022-12-25T10:28:39.847Z,44.87
2022-12-25T10:31:26.331Z,43.01
2022-12-25T10:33:54.255Z,39.86
2022-12-25T10:36:25.475Z,36.61
2022-12-25T10:38:54.571Z,34.94
2022-12-25T10:41:37.792Z,33.24
2022-12-25T10:44:16.204Z,30.89
2022-12-25T10:46:48.999Z,28.71
2022-12-25T10:49:20.306Z,27.55
2022-12-25T10:51:48.383Z,26.72
2022-12-25T10:54:27.808Z,25.94
2022-12-25T10:56:56.556Z,25.79
2022-12-25T10:59:29.509Z,25.06
2022-12-25T11:02:11.809Z,23.94
2022-12-25T11:04:39.630Z,23.86
2022-12-25T11:07:19.082Z,21.91
2022-12-25T11:09:59.363Z,20.78
2022-12-25T11:12:45.262Z,21.55
2022-12-25T11:15:31.703Z,22.68
2022-12-25T11:17:59.459Z,22.81
2022-12-25T11:20:27.313Z,23.86
2022-12-25T11:22:54.984Z,25.41
2022-12-25T11:25:27.631Z,26.90
2022-12-25T11:28:01.293Z,27.65
2022-12-25T11:30:32.540Z,27.34
2022-12-25T11:33:10.689Z,27.03
2022-12-25T11:35:52.315Z,26.26
2022-12-25T11:38:19.919Z,25.38
2022-12-25T11:41:01.104Z,24.91
2022-12-25T11:43:49.051Z,24.76
2022-12-25T11:46:25.363Z,24.55
2022-12-25T11:49:07.391Z,24.73
2022-12-25T11:51:39.246Z,25.14
2022-12-25T11:54:30.699Z,24.52
2022-12-25T11:57:02.291Z,23.94
2022-12-25T11:59:47.780Z,23.13
2022-12-25T12:02:42.411Z,22.24
2022-12-25T12:05:25.571Z,22.12
2022-12-25T12:08:06.189Z,21.77
2022-12-25T12:10:58.240Z,21.97
2022-12-25T12:13:59.029Z,22.66
2022-12-25T12:16:26.833Z,22.09
2022-12-25T12:18:54.489Z,22.89
2022-12-25T12:21:27.539Z,24.08
2022-12-25T12:24:09.536Z,25.47
2022-12-25T12:26:40.533Z,26.44
2022-12-25T12:29:24.459Z,27.15
2022-12-25T12:31:53.554Z,28.39
2022-12-25T12:34:41.644Z,29.04
2022-12-25T12:37:25.211Z,30.50
2022-12-25T12:39:54.641Z,32.00
2022-12-25T12:42:26.020Z,33.25
2022-12-25T12:44:56.727Z,34.64
2022-12-25T12:47:45.059Z,35.97
2022-12-25T12:50:36.275Z,37.12
2022-12-25T12:53:22.326Z,38.46
2022-12-25T12:55:51.717Z,39.86
2022-12-25T12:58:36.820Z,41.47
2022-12-25T13:01:13.391Z,42.71
2022-12-25T13:03:50.143Z,43.83
2022-12-25T13:06:26.023Z,45.12
2022-12-25T13:09:15.086Z,46.54
2022-12-25T13:11:44.291Z,47.61
2022-12-25T13:14:16.445Z,48.56
2022-12-25T13:16:46.729Z,49.50
2022-12-25T13:19:16.310Z,50.43
2022-12-25T13:21:53.009Z,51.22
2022-12-25T13:24:25.398Z,52.06
2022-12-25T13:26:53.112Z,52.71
2022-12-25T13:29:35.033Z,53.45
2022-12-25T13:32:05.486Z,53.99
2022-12-25T13:34:37.271Z,54.30
2022-12-25T13:37:15.372Z,54.88
2022-12-25T13:39:55.278Z,55.32
2022-12-25T13:42:26.443Z,55.77
2022-12-25T13:45:00.591Z,56.12
2022-12-25T13:47:39.115Z,56.52
2022-12-25T13:50:14.450Z,57.09
2022-12-25T13:52:42.534Z,57.70
2022-12-25T13:55:16.965Z,58.04
2022-12-25T13:57:51.744Z,58.84
2022-12-25T14:00:32.136Z,59.06
2022-12-25T14:03:00.453Z,59.47
2022-12-25T14:05:37.890Z,59.86
2022-12-25T14:08:25.128Z,60.00
2022-12-25T14:10:54.514Z,60.44
2022-12-25T14:13:26.065Z,60.82
2022-12-25T14:15:55.041Z,60.99
2022-12-25T14:18:24.705Z,61.48
2022-12-25T14:20:59.784Z,61.91
2022-12-25T14:23:45.101Z,62.43
2022-12-25T14:26:21.481Z,62.55
2022-12-25T14:28:54.918Z,63.02
2022-12-25T14:31:23.742Z,63.26
2022-12-25T14:33:52.870Z,63.63
2022-12-25T14:36:21.061Z,63.75
2022-12-25T14:39:04.790Z,64.08
2022-12-25T14:41:38.403Z,63.99
2022-12-25T14:44:35.875Z,64.48
2022-12-25T14:47:18.631Z,64.60
2022-12-25T14:49:47.639Z,64.94
2022-12-25T14:52:26.619Z,65.24
2022-12-25T14:54:59.403Z,65.15
2022-12-25T14:57:37.489Z,65.36
2022-12-25T15:00:21.195Z,65.44
2022-12-25T15:02:50.416Z,65.62
2022-12-25T15:05:24.364Z,65.64
2022-12-25T15:08:20.484Z,65.51
2022-12-25T15:11:05.169Z,65.69
2022-12-25T15:13:32.999Z,65.55
2022-12-25T15:16:14.368Z,65.59
2022-12-25T15:18:45.321Z,65.57
2022-12-25T15:21:26.226Z,65.77
2022-12-25T15:23:55.049Z,65.73
2022-12-25T15:26:23.275Z,66.00
2022-12-25T15:28:51.333Z,65.99
2022-12-25T15:31:25.938Z,66.17
2022-12-25T15:33:56.721Z,66.29
2022-12-25T15:36:27.574Z,66.41
2022-12-25T15:38:56.224Z,66.55
2022-12-25T15:41:27.995Z,66.60
2022-12-25T15:43:55.614Z,66.91
2022-12-25T15:46:23.419Z,67.01
2022-12-25T15:48:52.916Z,67.03
2022-12-25T15:51:20.525Z,66.94
2022-12-25T15:53:48.314Z,67.05
2022-12-25T15:56:16.365Z,67.15
2022-12-25T15:58:44.015Z,67.15
2022-12-25T16:01:19.416Z,67.26
2022-12-25T16:03:47.856Z,67.52
2022-12-25T16:06:17.354Z,67.44
2022-12-25T16:08:45.850Z,67.69
2022-12-25T16:11:13.441Z,67.72
2022-12-25T16:13:41.301Z,67.87
2022-12-25T16:16:09.185Z,67.81
2022-12-25T16:18:39.666Z,67.96
2022-12-25T16:21:14.651Z,68.04
2022-12-25T16:23:42.715Z,68.06
2022-12-25T16:26:11.029Z,68.12
2022-12-25T16:28:38.654Z,68.20
2022-12-25T16:31:06.397Z,68.17
2022-12-25T16:33:34.070Z,68.35
2022-12-25T16:36:01.723Z,68.32
2022-12-25T16:38:29.382Z,68.29
2022-12-25T16:41:01.409Z,68.08
2022-12-25T16:43:29.075Z,68.14
2022-12-25T16:45:56.807Z,68.10
2022-12-25T16:48:25.751Z,68.00
2022-12-25T16:50:53.381Z,67.91
2022-12-25T16:53:20.969Z,67.83
2022-12-25T16:55:48.598Z,67.78
2022-12-25T16:58:16.304Z,67.97
2022-12-25T17:00:49.020Z,68.11
2022-12-25T17:03:17.291Z,68.09
2022-12-25T17:05:45.227Z,68.02
2022-12-25T17:08:12.867Z,68.38
2022-12-25T17:10:40.532Z,68.31
2022-12-25T17:13:08.159Z,68.38
2022-12-25T17:15:35.831Z,68.36
2022-12-25T17:18:03.612Z,68.48
2022-12-25T17:20:31.313Z,68.45
2022-12-25T17:22:58.920Z,68.60
2022-12-25T17:25:26.579Z,68.58
2022-12-25T17:27:55.602Z,68.83
2022-12-25T17:30:23.214Z,68.81
2022-12-25T17:32:50.854Z,68.86
2022-12-25T17:35:18.643Z,68.93
2022-12-25T17:37:46.267Z,68.62
2022-12-25T17:40:14.086Z,68.92
2022-12-25T17:42:41.703Z,68.89
2022-12-25T17:45:10.015Z,68.95
2022-12-25T17:47:37.699Z,69.00
2022-12-25T17:50:08.173Z,69.01
2022-12-25T17:52:35.898Z,69.17
2022-12-25T17:55:04.019Z,69.10
2022-12-25T17:57:31.663Z,69.04
2022-12-25T17:59:59.385Z,69.07
2022-12-25T18:02:27.154Z,69.23
2022-12-25T18:04:54.918Z,69.32
2022-12-25T18:07:22.577Z,69.37
2022-12-25T18:09:50.234Z,69.54
2022-12-25T18:12:17.867Z,69.80
2022-12-25T18:14:45.615Z,69.59
2022-12-25T18:17:13.224Z,69.63
2022-12-25T18:19:40.948Z,69.32
2022-12-25T18:22:08.652Z,69.32
2022-12-25T18:24:36.308Z,69.28
2022-12-25T18:27:03.978Z,69.19
2022-12-25T18:29:31.613Z,69.08
2022-12-25T18:31:59.331Z,68.97
2022-12-25T18:34:26.970Z,69.12
2022-12-25T18:36:54.569Z,68.85
2022-12-25T18:39:22.209Z,68.75
2022-12-25T18:41:49.797Z,68.94
2022-12-25T18:44:17.463Z,68.86
2022-12-25T18:46:45.495Z,68.94
2022-12-25T18:49:13.108Z,69.01
2022-12-25T18:51:40.768Z,69.02
2022-12-25T18:54:08.408Z,69.29
2022-12-25T18:56:36.071Z,69.12
2022-12-25T18:59:03.814Z,69.43
2022-12-25T19:01:31.550Z,69.73
2022-12-25T19:04:05.011Z,69.96
2022-12-25T19:06:33.822Z,69.81
2022-12-25T19:09:01.714Z,69.81
2022-12-25T19:11:29.349Z,69.75
2022-12-25T19:13:57.002Z,69.99
2022-12-25T19:16:24.641Z,70.03
2022-12-25T19:18:52.354Z,69.86
2022-12-25T19:21:20.015Z,70.18
2022-12-25T19:23:47.827Z,70.09
2022-12-25T19:26:15.780Z,70.27
2022-12-25T19:28:43.421Z,70.04
2022-12-25T19:31:11.261Z,70.10
2022-12-25T19:33:41.240Z,69.89
2022-12-25T19:36:12.005Z,70.23
2022-12-25T19:38:39.946Z,70.28
2022-12-25T19:41:16.298Z,70.41
2022-12-25T19:43:46.612Z,70.42
2022-12-25T19:46:25.213Z,70.59
2022-12-25T19:48:53.558Z,70.69
2022-12-25T19:51:27.353Z,70.54
2022-12-25T19:53:55.623Z,70.57
2022-12-25T19:56:24.628Z,70.60
2022-12-25T19:58:53.180Z,70.70
2022-12-25T20:01:22.908Z,70.98
2022-12-25T20:03:50.895Z,71.01
2022-12-25T20:06:27.822Z,71.06
2022-12-25T20:08:59.167Z,70.91
2022-12-25T20:11:29.095Z,70.98
2022-12-25T20:13:57.151Z,71.12
2022-12-25T20:16:25.937Z,71.10
2022-12-25T20:18:53.727Z,70.96
2022-12-25T20:21:22.777Z,70.95
2022-12-25T20:23:52.230Z,70.95
2022-12-25T20:26:22.839Z,70.92
2022-12-25T20:28:51.532Z,70.88
2022-12-25T20:31:31.319Z,71.08
2022-12-25T20:34:04.000Z,71.17
2022-12-25T20:36:36.813Z,71.21
2022-12-25T20:39:07.146Z,71.31
2022-12-25T20:41:35.825Z,71.21
2022-12-25T20:44:03.439Z,71.16
2022-12-25T20:46:31.233Z,71.15
2022-12-25T20:49:00.909Z,71.17
2022-12-25T20:51:28.690Z,71.73
2022-12-25T20:53:56.722Z,71.87
2022-12-25T20:56:26.218Z,72.10
2022-12-25T20:58:59.296Z,72.03
2022-12-25T21:01:30.458Z,72.00
2022-12-25T21:03:59.065Z,71.99
2022-12-25T21:06:26.871Z,71.91
2022-12-25T21:08:54.520Z,72.04
2022-12-25T21:11:22.169Z,71.91
2022-12-25T21:13:50.136Z,71.91
2022-12-25T21:16:21.355Z,72.04
2022-12-25T21:18:50.722Z,72.13
2022-12-25T21:21:19.517Z,72.11
2022-12-25T21:23:47.238Z,72.13
2022-12-25T21:26:23.068Z,72.05
2022-12-25T21:28:53.521Z,72.48
2022-12-25T21:31:21.919Z,72.50
2022-12-25T21:33:49.836Z,72.61
2022-12-25T21:36:20.131Z,72.85
2022-12-25T21:38:47.929Z,72.92
2022-12-25T21:41:18.583Z,73.02
2022-12-25T21:43:46.221Z,73.06
2022-12-25T21:46:14.963Z,73.03
2022-12-25T21:48:43.004Z,73.08
2022-12-25T21:51:17.677Z,73.34
2022-12-25T21:53:45.288Z,73.16
2022-12-25T21:56:13.018Z,73.00
2022-12-25T21:58:41.115Z,72.72
2022-12-25T22:01:09.509Z,72.64
2022-12-25T22:03:37.630Z,72.48
2022-12-25T22:06:05.968Z,72.44
2022-12-25T22:08:33.762Z,72.44
2022-12-25T22:11:04.380Z,72.35
2022-12-25T22:13:32.307Z,72.55
2022-12-25T22:16:04.955Z,72.31
2022-12-25T22:18:32.612Z,72.44
2022-12-25T22:21:00.200Z,72.55
2022-12-25T22:23:27.803Z,72.44
2022-12-25T22:25:55.456Z,72.49
2022-12-25T22:28:23.128Z,72.75
2022-12-25T22:30:50.722Z,72.82
2022-12-25T22:33:18.451Z,72.78
2022-12-25T22:35:46.071Z,72.48
2022-12-25T22:38:13.690Z,72.58
2022-12-25T22:40:41.325Z,72.54
2022-12-25T22:43:08.946Z,72.45
2022-12-25T22:45:36.590Z,72.36
2022-12-25T22:48:04.375Z,72.46
2022-12-25T22:50:32.005Z,72.34
2022-12-25T22:52:59.640Z,72.32
2022-12-25T22:55:27.280Z,72.48
2022-12-25T22:57:54.905Z,72.52
2022-12-25T23:00:22.583Z,72.48
2022-12-25T23:02:50.397Z,72.49
2022-12-25T23:05:18.347Z,72.58
2022-12-25T23:07:46.009Z,72.56
2022-12-25T23:10:13.686Z,72.81
2022-12-25T23:12:41.356Z,72.87
2022-12-25T23:15:09.425Z,72.79
2022-12-25T23:17:37.083Z,72.81
2022-12-25T23:20:05.660Z,72.91
2022-12-25T23:22:33.255Z,73.01
2022-12-25T23:25:00.924Z,73.19
2022-12-25T23:27:28.650Z,73.13
2022-12-25T23:29:56.248Z,73.09
2022-12-25T23:32:25.922Z,72.99
2022-12-25T23:34:55.132Z,73.32
2022-12-25T23:37:23.169Z,73.32
2022-12-25T23:39:50.876Z,73.20
2022-12-25T23:42:18.540Z,73.16
2022-12-25T23:44:46.258Z,73.29
2022-12-25T23:47:13.988Z,73.33
2022-12-25T23:49:41.714Z,73.45
2022-12-25T23:52:11.704Z,73.40
2022-12-25T23:54:39.607Z,73.51
2022-12-25T23:57:07.236Z,73.83
2022-12-25T23:59:34.891Z,73.85
